首页
METAR-TAF:

METAR-TAF

机场 :

Mackenzie, 不列颠哥伦比亚, 加拿大

纬度: 55-18N, 经度: 123-08W, 海拔: 695米

当前天气观测

该预报发布于1小时和5分钟前的23:00 UTC
风速7节,风向东南
温度 -2°C
湿度 80%
气压 1003 hPa
能見度: 14.5公里
多云层高于7000英尺

METAR: CYZY 122300Z AUTO 14007KT 9SM BKN070 M02/M05 A2961 RMK SLP060

时间: 16:05 (00:05 UTC)

预报

该预报发布于5小时和27分钟前的18:38 UTC
预报有效从12日的 19点(UTC)到 13日的 07点(UTC)
风速8节,风向
能見度: 10公里
散云层高于4000英尺
从 12日的 2200点(UTC)
风速12节,风向南转南东,有时为22节阵风
能見度: 10公里
散云层高于4000英尺
多云层高于12000英尺
小雪
短暂存在
从 12日的 22点(UTC)到 13日的 07点(UTC)
能見度: 3.2公里
多云层高于4000英尺
阴天层高于8000英尺
小雪

TAF: CYZY 121838Z 1219/1307 18008KT P6SM SCT040 FM122200 16012G22KT P6SM -SN SCT040 BKN120 TEMPO 1222/1307 2SM -SN BKN040 OVC080 RMK FCST BASED ON AUTO OBS. NXT FCST BY 130100Z

超过4000个机场的气象观测和天气预报(METAR&TAF报告)。

可查询的气象台以黄色和红色小点在地图上表示。

将鼠标移到小点上方,可查看气象台名称。

然后点击查看天气观测和预报。

如需切换地图:点击带黑十字的绿色按钮放大地图;点击带横线的绿色按钮缩小地图;或者点击绿色箭头查看邻近地区的地图。


METAR-TAF: